Terminal Aerodrome Forecast
Issued by NWS

Home | Current Version | Previous Version | Text Only | Print | Product List | Glossary On
Versions: 1 2 3 4 5 6 7 8 9 10 11 12 13 14 15 16 17 18 19 20 21 22
000
FTUS44 KTSA 242300 AAA
TAFFYV
TAF AMD
KFYV 242348Z 2500/2524 VRB06KT 4SM -RA BR BKN020
      TEMPO 2500/2503 2SM BR BKN007
     FM250300 17006KT 4SM BR OVC050
     FM250700 17002KT 2SM BR OVC012
      TEMPO 2512/2516 1SM BR OVC007
     FM251600 18010KT 5SM BR OVC020
     FM251800 18011KT P6SM BKN050 PROB30 2521/2524 P6SM TS BKN050CB=

USA.gov is the U.S. government's official web portal to all federal, state and local government web resources and services.